sensor_id;sensor_type;location;lat;lon;timestamp;pressure;altitude;pressure_sealevel;temperature;humidity
8160;BME280;27404;52.398;9.646;2022-12-07T00:01:11;100648.50;;;2.22;100.00
8160;BME280;27404;52.398;9.646;2022-12-07T00:03:38;100643.69;;;2.33;100.00
8160;BME280;27404;52.398;9.646;2022-12-07T00:06:05;100642.84;;;2.32;100.00
8160;BME280;27404;52.398;9.646;2022-12-07T00:08:31;100642.50;;;2.35;100.00
8160;BME280;27404;52.398;9.646;2022-12-07T00:11:05;100635.06;;;2.37;100.00
8160;BME280;27404;52.398;9.646;2022-12-07T00:13:32;100631.03;;;2.33;100.00
8160;BME280;27404;52.398;9.646;2022-12-07T00:16:10;100612.94;;;2.42;100.00
8160;BME280;27404;52.398;9.646;2022-12-07T00:18:36;100614.50;;;2.36;100.00
8160;BME280;27404;52.398;9.646;2022-12-07T00:21:10;100613.84;;;2.34;100.00
8160;BME280;27404;52.398;9.646;2022-12-07T00:23:36;100612.28;;;2.40;100.00
8160;BME280;27404;52.398;9.646;2022-12-07T00:28:33;100612.56;;;2.45;100.00
8160;BME280;27404;52.398;9.646;2022-12-07T00:31:04;100611.44;;;2.40;100.00
8160;BME280;27404;52.398;9.646;2022-12-07T00:33:32;100602.31;;;2.41;100.00
8160;BME280;27404;52.398;9.646;2022-12-07T00:35:58;100604.66;;;2.44;100.00
8160;BME280;27404;52.398;9.646;2022-12-07T00:38:26;100596.19;;;2.47;100.00
8160;BME280;27404;52.398;9.646;2022-12-07T00:41:04;100606.25;;;2.53;100.00
8160;BME280;27404;52.398;9.646;2022-12-07T00:43:30;100606.25;;;2.53;100.00
8160;BME280;27404;52.398;9.646;2022-12-07T00:45:56;100605.22;;;2.54;100.00
8160;BME280;27404;52.398;9.646;2022-12-07T00:48:23;100599.66;;;2.56;100.00
8160;BME280;27404;52.398;9.646;2022-12-07T00:50:49;100598.94;;;2.62;100.00
8160;BME280;27404;52.398;9.646;2022-12-07T00:53:15;100596.31;;;2.69;100.00
8160;BME280;27404;52.398;9.646;2022-12-07T00:55:41;100587.28;;;2.61;100.00
8160;BME280;27404;52.398;9.646;2022-12-07T00:58:07;100586.72;;;2.66;100.00
8160;BME280;27404;52.398;9.646;2022-12-07T01:00:35;100585.16;;;2.72;100.00
8160;BME280;27404;52.398;9.646;2022-12-07T01:03:01;100578.63;;;2.66;100.00
8160;BME280;27404;52.398;9.646;2022-12-07T01:05:27;100584.13;;;2.73;100.00
8160;BME280;27404;52.398;9.646;2022-12-07T01:07:52;100583.84;;;2.67;100.00
8160;BME280;27404;52.398;9.646;2022-12-07T01:10:18;100585.53;;;2.69;100.00
8160;BME280;27404;52.398;9.646;2022-12-07T01:12:43;100581.25;;;2.74;100.00
8160;BME280;27404;52.398;9.646;2022-12-07T01:15:09;100591.38;;;2.72;100.00
8160;BME280;27404;52.398;9.646;2022-12-07T01:17:34;100582.47;;;2.72;100.00
8160;BME280;27404;52.398;9.646;2022-12-07T01:20:01;100589.03;;;2.69;100.00
8160;BME280;27404;52.398;9.646;2022-12-07T01:22:27;100584.88;;;2.66;100.00
8160;BME280;27404;52.398;9.646;2022-12-07T01:24:52;100594.94;;;2.73;100.00
8160;BME280;27404;52.398;9.646;2022-12-07T01:27:17;100593.63;;;2.69;100.00
8160;BME280;27404;52.398;9.646;2022-12-07T01:29:43;100592.78;;;2.68;100.00
8160;BME280;27404;52.398;9.646;2022-12-07T01:32:08;100585.53;;;2.69;100.00
8160;BME280;27404;52.398;9.646;2022-12-07T01:34:34;100576.78;;;2.66;100.00
8160;BME280;27404;52.398;9.646;2022-12-07T01:36:59;100580.69;;;2.79;100.00
8160;BME280;27404;52.398;9.646;2022-12-07T01:39:25;100578.53;;;2.74;100.00
8160;BME280;27404;52.398;9.646;2022-12-07T01:41:50;100572.69;;;2.71;100.00
8160;BME280;27404;52.398;9.646;2022-12-07T01:44:20;100561.81;;;2.64;100.00
8160;BME280;27404;52.398;9.646;2022-12-07T01:46:52;100552.69;;;2.65;100.00
8160;BME280;27404;52.398;9.646;2022-12-07T01:49:28;100557.97;;;2.58;100.00
8160;BME280;27404;52.398;9.646;2022-12-07T01:52:21;100561.78;;;2.49;100.00
8160;BME280;27404;52.398;9.646;2022-12-07T01:54:50;100565.41;;;2.41;100.00
8160;BME280;27404;52.398;9.646;2022-12-07T01:57:18;100562.13;;;2.31;100.00
8160;BME280;27404;52.398;9.646;2022-12-07T01:59:47;100575.59;;;2.31;100.00
8160;BME280;27404;52.398;9.646;2022-12-07T02:02:24;100572.09;;;2.45;100.00
8160;BME280;27404;52.398;9.646;2022-12-07T02:04:52;100570.59;;;2.43;100.00
8160;BME280;27404;52.398;9.646;2022-12-07T02:07:20;100564.53;;;2.41;100.00
8160;BME280;27404;52.398;9.646;2022-12-07T02:09:46;100561.38;;;2.37;100.00
8160;BME280;27404;52.398;9.646;2022-12-07T02:12:11;100559.31;;;2.24;100.00
8160;BME280;27404;52.398;9.646;2022-12-07T02:14:37;100560.34;;;2.23;100.00
8160;BME280;27404;52.398;9.646;2022-12-07T02:17:32;100552.63;;;2.20;100.00
8160;BME280;27404;52.398;9.646;2022-12-07T02:20:13;100556.34;;;2.19;100.00
8160;BME280;27404;52.398;9.646;2022-12-07T02:23:04;100550.09;;;2.18;100.00
8160;BME280;27404;52.398;9.646;2022-12-07T02:25:44;100553.56;;;2.27;100.00
8160;BME280;27404;52.398;9.646;2022-12-07T02:30:58;100556.13;;;2.20;100.00
8160;BME280;27404;52.398;9.646;2022-12-07T02:33:36;100547.16;;;2.05;100.00
8160;BME280;27404;52.398;9.646;2022-12-07T02:36:10;100547.16;;;2.05;100.00
8160;BME280;27404;52.398;9.646;2022-12-07T02:41:31;100534.97;;;1.94;100.00
8160;BME280;27404;52.398;9.646;2022-12-07T02:44:01;100544.66;;;2.03;100.00
8160;BME280;27404;52.398;9.646;2022-12-07T02:46:30;100542.91;;;2.11;100.00
8160;BME280;27404;52.398;9.646;2022-12-07T02:48:57;100538.63;;;2.01;100.00
8160;BME280;27404;52.398;9.646;2022-12-07T02:51:25;100539.53;;;1.94;100.00
8160;BME280;27404;52.398;9.646;2022-12-07T02:53:51;100529.88;;;1.99;100.00
8160;BME280;27404;52.398;9.646;2022-12-07T03:13:45;100533.81;;;2.12;100.00
8160;BME280;27404;52.398;9.646;2022-12-07T03:19:36;100527.56;;;2.11;100.00
8160;BME280;27404;52.398;9.646;2022-12-07T03:21:45;100523.00;;;1.97;100.00
8160;BME280;27404;52.398;9.646;2022-12-07T03:24:18;100523.81;;;1.97;100.00
8160;BME280;27404;52.398;9.646;2022-12-07T03:26:51;100523.09;;;2.03;100.00
8160;BME280;27404;52.398;9.646;2022-12-07T03:29:40;100521.13;;;1.97;100.00
8160;BME280;27404;52.398;9.646;2022-12-07T03:32:14;100511.28;;;2.04;100.00
8160;BME280;27404;52.398;9.646;2022-12-07T03:34:53;100512.41;;;2.10;100.00
8160;BME280;27404;52.398;9.646;2022-12-07T03:42:30;100515.31;;;2.09;100.00
8160;BME280;27404;52.398;9.646;2022-12-07T03:44:57;100511.22;;;2.13;100.00
8160;BME280;27404;52.398;9.646;2022-12-07T03:47:26;100517.94;;;2.17;100.00
8160;BME280;27404;52.398;9.646;2022-12-07T03:50:12;100518.59;;;2.19;100.00
8160;BME280;27404;52.398;9.646;2022-12-07T03:52:47;100518.28;;;2.14;100.00
8160;BME280;27404;52.398;9.646;2022-12-07T03:55:29;100526.91;;;2.09;100.00
8160;BME280;27404;52.398;9.646;2022-12-07T03:57:59;100519.38;;;2.04;100.00
8160;BME280;27404;52.398;9.646;2022-12-07T04:00:26;100523.72;;;1.90;100.00
8160;BME280;27404;52.398;9.646;2022-12-07T04:02:52;100528.63;;;1.87;100.00
8160;BME280;27404;52.398;9.646;2022-12-07T04:05:18;100530.28;;;1.88;100.00
8160;BME280;27404;52.398;9.646;2022-12-07T04:07:44;100529.63;;;1.86;100.00
8160;BME280;27404;52.398;9.646;2022-12-07T04:10:10;100526.59;;;1.89;100.00
8160;BME280;27404;52.398;9.646;2022-12-07T04:12:36;100527.97;;;1.85;100.00
8160;BME280;27404;52.398;9.646;2022-12-07T04:15:01;100520.53;;;1.87;100.00
8160;BME280;27404;52.398;9.646;2022-12-07T04:17:27;100528.69;;;1.78;100.00
8160;BME280;27404;52.398;9.646;2022-12-07T04:19:52;100531.03;;;1.82;100.00
8160;BME280;27404;52.398;9.646;2022-12-07T04:22:18;100526.84;;;1.79;100.00
8160;BME280;27404;52.398;9.646;2022-12-07T04:24:43;100524.97;;;1.80;100.00
8160;BME280;27404;52.398;9.646;2022-12-07T04:27:09;100519.34;;;1.89;100.00
8160;BME280;27404;52.398;9.646;2022-12-07T04:29:34;100521.03;;;1.90;100.00
8160;BME280;27404;52.398;9.646;2022-12-07T04:32:00;100527.72;;;1.95;100.00
8160;BME280;27404;52.398;9.646;2022-12-07T04:34:25;100522.59;;;2.00;100.00
8160;BME280;27404;52.398;9.646;2022-12-07T04:36:51;100525.97;;;2.02;100.00
8160;BME280;27404;52.398;9.646;2022-12-07T04:39:20;100531.09;;;1.97;100.00
8160;BME280;27404;52.398;9.646;2022-12-07T04:41:46;100524.03;;;1.96;100.00
8160;BME280;27404;52.398;9.646;2022-12-07T04:44:12;100523.53;;;1.92;100.00
8160;BME280;27404;52.398;9.646;2022-12-07T04:46:39;100522.50;;;1.93;100.00
8160;BME280;27404;52.398;9.646;2022-12-07T04:49:05;100513.47;;;1.86;100.00
8160;BME280;27404;52.398;9.646;2022-12-07T04:51:30;100513.88;;;1.74;100.00
8160;BME280;27404;52.398;9.646;2022-12-07T04:53:56;100510.91;;;1.69;100.00
8160;BME280;27404;52.398;9.646;2022-12-07T04:56:22;100503.00;;;1.68;100.00
8160;BME280;27404;52.398;9.646;2022-12-07T04:58:49;100499.53;;;1.59;100.00
8160;BME280;27404;52.398;9.646;2022-12-07T05:01:16;100505.09;;;1.57;100.00
8160;BME280;27404;52.398;9.646;2022-12-07T05:03:42;100500.38;;;1.59;100.00
8160;BME280;27404;52.398;9.646;2022-12-07T05:06:09;100507.28;;;1.62;100.00
8160;BME280;27404;52.398;9.646;2022-12-07T05:08:35;100512.56;;;1.70;100.00
8160;BME280;27404;52.398;9.646;2022-12-07T05:11:01;100514.59;;;1.68;100.00
8160;BME280;27404;52.398;9.646;2022-12-07T05:13:27;100504.56;;;1.62;100.00
8160;BME280;27404;52.398;9.646;2022-12-07T05:15:53;100505.28;;;1.56;100.00
8160;BME280;27404;52.398;9.646;2022-12-07T05:18:18;100502.09;;;1.52;100.00
8160;BME280;27404;52.398;9.646;2022-12-07T05:20:45;100510.06;;;1.45;100.00
8160;BME280;27404;52.398;9.646;2022-12-07T05:23:11;100506.22;;;1.40;100.00
8160;BME280;27404;52.398;9.646;2022-12-07T05:25:37;100508.56;;;1.43;100.00
8160;BME280;27404;52.398;9.646;2022-12-07T05:28:03;100505.88;;;1.43;100.00
8160;BME280;27404;52.398;9.646;2022-12-07T05:30:28;100507.31;;;1.30;100.00
8160;BME280;27404;52.398;9.646;2022-12-07T05:32:55;100508.50;;;1.28;100.00
8160;BME280;27404;52.398;9.646;2022-12-07T05:35:20;100514.06;;;1.26;100.00
8160;BME280;27404;52.398;9.646;2022-12-07T05:37:46;100517.66;;;1.42;100.00
8160;BME280;27404;52.398;9.646;2022-12-07T05:40:12;100515.47;;;1.45;100.00
8160;BME280;27404;52.398;9.646;2022-12-07T05:42:38;100513.06;;;1.51;100.00
8160;BME280;27404;52.398;9.646;2022-12-07T05:45:05;100513.44;;;1.47;100.00
8160;BME280;27404;52.398;9.646;2022-12-07T05:47:30;100514.09;;;1.50;100.00
8160;BME280;27404;52.398;9.646;2022-12-07T05:49:56;100516.06;;;1.56;100.00
8160;BME280;27404;52.398;9.646;2022-12-07T05:52:22;100524.16;;;1.56;100.00
8160;BME280;27404;52.398;9.646;2022-12-07T05:54:47;100519.44;;;1.58;100.00
8160;BME280;27404;52.398;9.646;2022-12-07T05:57:12;100517.03;;;1.63;100.00
8160;BME280;27404;52.398;9.646;2022-12-07T05:59:38;100510.78;;;1.62;100.00
8160;BME280;27404;52.398;9.646;2022-12-07T06:02:06;100517.97;;;1.70;100.00
8160;BME280;27404;52.398;9.646;2022-12-07T06:04:35;100517.59;;;1.73;100.00
8160;BME280;27404;52.398;9.646;2022-12-07T06:07:01;100514.38;;;1.78;100.00
8160;BME280;27404;52.398;9.646;2022-12-07T06:09:27;100517.53;;;1.82;100.00
8160;BME280;27404;52.398;9.646;2022-12-07T06:11:54;100512.22;;;1.73;100.00
8160;BME280;27404;52.398;9.646;2022-12-07T06:14:38;100508.84;;;1.71;100.00
8160;BME280;27404;52.398;9.646;2022-12-07T06:17:04;100519.28;;;1.74;100.00
8160;BME280;27404;52.398;9.646;2022-12-07T06:19:30;100513.22;;;1.72;100.00
8160;BME280;27404;52.398;9.646;2022-12-07T06:21:56;100511.09;;;1.68;100.00
8160;BME280;27404;52.398;9.646;2022-12-07T06:24:22;100514.03;;;1.81;100.00
8160;BME280;27404;52.398;9.646;2022-12-07T06:26:48;100513.38;;;1.79;100.00
8160;BME280;27404;52.398;9.646;2022-12-07T06:29:14;100519.56;;;1.80;100.00
8160;BME280;27404;52.398;9.646;2022-12-07T06:31:40;100518.91;;;1.77;100.00
8160;BME280;27404;52.398;9.646;2022-12-07T06:34:12;100521.44;;;1.79;100.00
8160;BME280;27404;52.398;9.646;2022-12-07T06:36:39;100511.84;;;1.76;100.00
8160;BME280;27404;52.398;9.646;2022-12-07T06:39:05;100513.38;;;1.79;100.00
8160;BME280;27404;52.398;9.646;2022-12-07T06:41:31;100518.75;;;1.79;100.00
8160;BME280;27404;52.398;9.646;2022-12-07T06:43:56;100518.09;;;1.77;100.00
8160;BME280;27404;52.398;9.646;2022-12-07T06:46:23;100518.97;;;1.69;100.00
8160;BME280;27404;52.398;9.646;2022-12-07T06:48:49;100524.09;;;1.64;100.00
8160;BME280;27404;52.398;9.646;2022-12-07T06:51:14;100525.31;;;1.76;100.00
8160;BME280;27404;52.398;9.646;2022-12-07T06:53:40;100520.25;;;1.58;100.00
8160;BME280;27404;52.398;9.646;2022-12-07T06:56:06;100517.91;;;1.55;100.00
8160;BME280;27404;52.398;9.646;2022-12-07T06:58:31;100519.47;;;1.50;100.00
8160;BME280;27404;52.398;9.646;2022-12-07T07:00:57;100516.34;;;1.38;100.00
8160;BME280;27404;52.398;9.646;2022-12-07T07:03:22;100511.50;;;1.33;100.00
8160;BME280;27404;52.398;9.646;2022-12-07T07:05:48;100517.13;;;1.23;100.00
8160;BME280;27404;52.398;9.646;2022-12-07T07:08:14;100524.84;;;1.26;100.00
8160;BME280;27404;52.398;9.646;2022-12-07T07:10:40;100520.78;;;1.30;100.00
8160;BME280;27404;52.398;9.646;2022-12-07T07:13:06;100521.97;;;1.28;100.00
8160;BME280;27404;52.398;9.646;2022-12-07T07:15:32;100520.94;;;1.29;100.00
8160;BME280;27404;52.398;9.646;2022-12-07T07:17:59;100527.53;;;1.26;100.00
8160;BME280;27404;52.398;9.646;2022-12-07T07:20:24;100529.34;;;1.34;100.00
8160;BME280;27404;52.398;9.646;2022-12-07T07:22:50;100523.59;;;1.37;100.00
8160;BME280;27404;52.398;9.646;2022-12-07T07:25:16;100535.38;;;1.36;100.00
8160;BME280;27404;52.398;9.646;2022-12-07T07:27:41;100537.47;;;1.26;100.00
8160;BME280;27404;52.398;9.646;2022-12-07T07:30:07;100536.09;;;1.30;100.00
8160;BME280;27404;52.398;9.646;2022-12-07T07:32:33;100536.28;;;1.28;100.00
8160;BME280;27404;52.398;9.646;2022-12-07T07:34:59;100540.47;;;1.31;100.00
8160;BME280;27404;52.398;9.646;2022-12-07T07:37:25;100539.56;;;1.39;100.00
8160;BME280;27404;52.398;9.646;2022-12-07T07:39:50;100547.28;;;1.42;100.00
8160;BME280;27404;52.398;9.646;2022-12-07T07:42:15;100544.78;;;1.40;100.00
8160;BME280;27404;52.398;9.646;2022-12-07T07:44:41;100544.44;;;1.43;100.00
8160;BME280;27404;52.398;9.646;2022-12-07T07:47:06;100547.91;;;1.52;100.00
8160;BME280;27404;52.398;9.646;2022-12-07T07:49:32;100544.53;;;1.50;100.00
8160;BME280;27404;52.398;9.646;2022-12-07T07:51:57;100544.75;;;1.48;100.00
8160;BME280;27404;52.398;9.646;2022-12-07T07:54:23;100538.03;;;1.44;100.00
8160;BME280;27404;52.398;9.646;2022-12-07T07:56:48;100542.88;;;1.49;100.00
8160;BME280;27404;52.398;9.646;2022-12-07T07:59:14;100541.75;;;1.43;100.00
8160;BME280;27404;52.398;9.646;2022-12-07T08:01:40;100547.78;;;1.45;100.00
8160;BME280;27404;52.398;9.646;2022-12-07T08:04:05;100550.47;;;1.45;100.00
8160;BME280;27404;52.398;9.646;2022-12-07T08:06:31;100549.72;;;1.60;100.00
8160;BME280;27404;52.398;9.646;2022-12-07T08:08:56;100552.41;;;1.60;100.00
8160;BME280;27404;52.398;9.646;2022-12-07T08:11:23;100553.66;;;1.72;100.00
8160;BME280;27404;52.398;9.646;2022-12-07T08:13:48;100554.63;;;1.80;100.00
8160;BME280;27404;52.398;9.646;2022-12-07T08:16:14;100557.63;;;1.85;100.00
8160;BME280;27404;52.398;9.646;2022-12-07T08:18:41;100554.50;;;1.96;100.00
8160;BME280;27404;52.398;9.646;2022-12-07T08:21:09;100551.91;;;2.03;100.00
8160;BME280;27404;52.398;9.646;2022-12-07T08:23:35;100551.91;;;2.03;100.00
8160;BME280;27404;52.398;9.646;2022-12-07T08:26:03;100550.41;;;2.00;100.00
8160;BME280;27404;52.398;9.646;2022-12-07T08:28:29;100552.00;;;1.95;100.00
8160;BME280;27404;52.398;9.646;2022-12-07T08:31:01;100555.63;;;2.02;100.00
8160;BME280;27404;52.398;9.646;2022-12-07T08:33:27;100551.19;;;2.09;100.00
8160;BME280;27404;52.398;9.646;2022-12-07T08:35:53;100556.69;;;2.16;100.00
8160;BME280;27404;52.398;9.646;2022-12-07T08:38:18;100559.84;;;2.19;100.00
8160;BME280;27404;52.398;9.646;2022-12-07T08:40:44;100564.16;;;2.29;100.00
8160;BME280;27404;52.398;9.646;2022-12-07T08:43:09;100563.34;;;2.28;100.00
8160;BME280;27404;52.398;9.646;2022-12-07T08:45:35;100556.63;;;2.24;100.00
8160;BME280;27404;52.398;9.646;2022-12-07T08:48:07;100553.81;;;2.32;100.00
8160;BME280;27404;52.398;9.646;2022-12-07T08:50:34;100558.41;;;2.32;100.00
8160;BME280;27404;52.398;9.646;2022-12-07T08:53:02;100557.84;;;2.36;100.00
8160;BME280;27404;52.398;9.646;2022-12-07T08:55:28;100566.06;;;2.43;100.00
8160;BME280;27404;52.398;9.646;2022-12-07T08:57:54;100563.16;;;2.45;100.00
8160;BME280;27404;52.398;9.646;2022-12-07T09:00:20;100563.22;;;2.36;100.00
8160;BME280;27404;52.398;9.646;2022-12-07T09:02:46;100566.59;;;2.39;100.00
8160;BME280;27404;52.398;9.646;2022-12-07T09:05:12;100567.59;;;2.37;100.00
8160;BME280;27404;52.398;9.646;2022-12-07T09:07:41;100567.16;;;2.34;100.00
8160;BME280;27404;52.398;9.646;2022-12-07T09:10:07;100580.06;;;2.39;100.00
8160;BME280;27404;52.398;9.646;2022-12-07T09:12:33;100578.41;;;2.37;100.00
8160;BME280;27404;52.398;9.646;2022-12-07T09:14:58;100573.50;;;2.41;100.00
8160;BME280;27404;52.398;9.646;2022-12-07T09:17:26;100572.84;;;2.54;100.00
8160;BME280;27404;52.398;9.646;2022-12-07T09:19:51;100571.53;;;2.50;100.00
8160;BME280;27404;52.398;9.646;2022-12-07T09:22:17;100566.34;;;2.48;100.00
8160;BME280;27404;52.398;9.646;2022-12-07T09:24:42;100565.31;;;2.49;100.00
8160;BME280;27404;52.398;9.646;2022-12-07T09:27:08;100565.78;;;2.53;100.00
8160;BME280;27404;52.398;9.646;2022-12-07T09:29:34;100566.22;;;2.42;100.00
8160;BME280;27404;52.398;9.646;2022-12-07T09:31:59;100557.75;;;2.45;100.00
8160;BME280;27404;52.398;9.646;2022-12-07T09:34:24;100559.28;;;2.47;100.00
8160;BME280;27404;52.398;9.646;2022-12-07T09:36:51;100559.88;;;2.34;100.00
8160;BME280;27404;52.398;9.646;2022-12-07T09:39:17;100564.00;;;2.45;100.00
8160;BME280;27404;52.398;9.646;2022-12-07T09:41:44;100558.81;;;2.59;100.00
8160;BME280;27404;52.398;9.646;2022-12-07T09:44:20;100554.34;;;2.66;100.00
8160;BME280;27404;52.398;9.646;2022-12-07T09:46:47;100565.16;;;2.81;100.00
8160;BME280;27404;52.398;9.646;2022-12-07T09:49:16;100558.06;;;2.95;100.00
8160;BME280;27404;52.398;9.646;2022-12-07T09:51:44;100556.56;;;3.07;100.00
8160;BME280;27404;52.398;9.646;2022-12-07T09:54:13;100560.00;;;3.16;100.00
8160;BME280;27404;52.398;9.646;2022-12-07T09:56:39;100551.25;;;3.14;100.00
8160;BME280;27404;52.398;9.646;2022-12-07T09:59:05;100553.00;;;3.07;100.00
8160;BME280;27404;52.398;9.646;2022-12-07T10:01:32;100546.06;;;2.98;100.00
8160;BME280;27404;52.398;9.646;2022-12-07T10:04:08;100550.03;;;3.02;100.00
8160;BME280;27404;52.398;9.646;2022-12-07T10:06:34;100554.69;;;3.08;100.00
8160;BME280;27404;52.398;9.646;2022-12-07T10:09:00;100550.81;;;3.32;100.00
8160;BME280;27404;52.398;9.646;2022-12-07T10:11:26;100550.72;;;3.40;100.00
8160;BME280;27404;52.398;9.646;2022-12-07T10:13:52;100555.47;;;3.38;100.00
8160;BME280;27404;52.398;9.646;2022-12-07T10:18:53;100557.56;;;3.58;100.00
8160;BME280;27404;52.398;9.646;2022-12-07T10:21:26;100559.72;;;3.48;100.00
8160;BME280;27404;52.398;9.646;2022-12-07T10:24:24;100554.31;;;3.26;100.00
8160;BME280;27404;52.398;9.646;2022-12-07T10:26:52;100551.72;;;3.18;100.00
8160;BME280;27404;52.398;9.646;2022-12-07T10:29:36;100552.38;;;3.20;100.00
8160;BME280;27404;52.398;9.646;2022-12-07T10:32:31;100550.88;;;3.17;100.00
8160;BME280;27404;52.398;9.646;2022-12-07T10:37:41;100556.38;;;3.24;100.00
8160;BME280;27404;52.398;9.646;2022-12-07T10:43:25;100557.94;;;3.18;100.00
8160;BME280;27404;52.398;9.646;2022-12-07T10:51:36;100545.66;;;3.16;100.00
8160;BME280;27404;52.398;9.646;2022-12-07T10:54:30;100542.59;;;3.19;100.00
8160;BME280;27404;52.398;9.646;2022-12-07T11:00:01;100532.63;;;3.04;100.00
8160;BME280;27404;52.398;9.646;2022-12-07T11:13:27;100544.84;;;2.55;100.00
8160;BME280;27404;52.398;9.646;2022-12-07T11:21:30;100546.72;;;2.01;100.00
8160;BME280;27404;52.398;9.646;2022-12-07T11:24:20;100535.31;;;1.91;100.00
8160;BME280;27404;52.398;9.646;2022-12-07T11:29:47;100531.75;;;1.99;100.00
8160;BME280;27404;52.398;9.646;2022-12-07T11:37:49;100514.75;;;2.13;100.00
8160;BME280;27404;52.398;9.646;2022-12-07T11:45:34;100504.44;;;2.17;100.00
8160;BME280;27404;52.398;9.646;2022-12-07T11:48:06;100503.16;;;2.28;100.00
8160;BME280;27404;52.398;9.646;2022-12-07T11:53:33;100500.66;;;2.41;100.00
8160;BME280;27404;52.398;9.646;2022-12-07T11:56:13;100499.44;;;2.44;100.00
8160;BME280;27404;52.398;9.646;2022-12-07T12:03:53;100485.84;;;2.52;100.00
8160;BME280;27404;52.398;9.646;2022-12-07T12:06:22;100486.03;;;2.65;100.00
8160;BME280;27404;52.398;9.646;2022-12-07T12:08:53;100478.19;;;2.86;100.00
8160;BME280;27404;52.398;9.646;2022-12-07T12:11:47;100477.31;;;3.00;100.00
8160;BME280;27404;52.398;9.646;2022-12-07T12:20:40;100466.75;;;3.20;100.00
8160;BME280;27404;52.398;9.646;2022-12-07T12:23:15;100457.44;;;3.23;100.00
8160;BME280;27404;52.398;9.646;2022-12-07T12:25:48;100463.41;;;3.18;100.00
8160;BME280;27404;52.398;9.646;2022-12-07T12:31:31;100452.84;;;3.23;100.00
8160;BME280;27404;52.398;9.646;2022-12-07T12:33:55;100452.97;;;3.15;100.00
8160;BME280;27404;52.398;9.646;2022-12-07T12:47:40;100440.28;;;2.94;100.00
8160;BME280;27404;52.398;9.646;2022-12-07T12:57:35;100443.25;;;2.99;100.00
8160;BME280;27404;52.398;9.646;2022-12-07T13:02:52;100435.84;;;3.08;100.00
8160;BME280;27404;52.398;9.646;2022-12-07T13:05:19;100436.88;;;3.07;100.00
8160;BME280;27404;52.398;9.646;2022-12-07T13:15:44;100432.25;;;3.01;100.00
8160;BME280;27404;52.398;9.646;2022-12-07T13:26:18;100437.47;;;3.02;100.00
8160;BME280;27404;52.398;9.646;2022-12-07T13:31:30;100420.56;;;2.93;100.00
8160;BME280;27404;52.398;9.646;2022-12-07T13:33:57;100421.97;;;2.89;100.00
8160;BME280;27404;52.398;9.646;2022-12-07T13:36:26;100421.50;;;2.86;100.00
8160;BME280;27404;52.398;9.646;2022-12-07T13:38:58;100412.09;;;2.81;100.00
8160;BME280;27404;52.398;9.646;2022-12-07T13:41:28;100421.50;;;2.86;100.00
8160;BME280;27404;52.398;9.646;2022-12-07T13:44:05;100416.94;;;2.86;100.00
8160;BME280;27404;52.398;9.646;2022-12-07T13:49:37;100417.38;;;2.90;100.00
8160;BME280;27404;52.398;9.646;2022-12-07T13:54:54;100412.56;;;2.85;100.00
8160;BME280;27404;52.398;9.646;2022-12-07T13:57:21;100405.66;;;2.83;100.00
8160;BME280;27404;52.398;9.646;2022-12-07T13:59:47;100405.41;;;2.77;100.00
8160;BME280;27404;52.398;9.646;2022-12-07T14:02:22;100402.53;;;2.79;100.00
8160;BME280;27404;52.398;9.646;2022-12-07T14:04:50;100397.94;;;2.79;100.00
8160;BME280;27404;52.398;9.646;2022-12-07T14:07:28;100407.94;;;2.79;100.00
8160;BME280;27404;52.398;9.646;2022-12-07T14:10:00;100410.75;;;2.71;100.00
8160;BME280;27404;52.398;9.646;2022-12-07T14:12:28;100405.72;;;2.67;100.00
8160;BME280;27404;52.398;9.646;2022-12-07T14:14:55;100410.19;;;2.60;100.00
8160;BME280;27404;52.398;9.646;2022-12-07T14:17:25;100412.25;;;2.58;100.00
8160;BME280;27404;52.398;9.646;2022-12-07T14:19:56;100412.44;;;2.57;100.00
8160;BME280;27404;52.398;9.646;2022-12-07T14:22:31;100410.41;;;2.59;100.00
8160;BME280;27404;52.398;9.646;2022-12-07T14:27:31;100413.19;;;2.50;100.00
8160;BME280;27404;52.398;9.646;2022-12-07T14:29:59;100407.97;;;2.49;100.00
8160;BME280;27404;52.398;9.646;2022-12-07T14:32:27;100406.28;;;2.48;100.00
8160;BME280;27404;52.398;9.646;2022-12-07T14:35:01;100412.81;;;2.39;100.00
8160;BME280;27404;52.398;9.646;2022-12-07T14:37:29;100405.09;;;2.35;100.00
8160;BME280;27404;52.398;9.646;2022-12-07T14:39:55;100406.53;;;2.31;100.00
8160;BME280;27404;52.398;9.646;2022-12-07T14:42:24;100403.53;;;2.26;100.00
8160;BME280;27404;52.398;9.646;2022-12-07T14:44:52;100407.63;;;2.22;100.00
8160;BME280;27404;52.398;9.646;2022-12-07T14:47:17;100407.06;;;2.12;100.00
8160;BME280;27404;52.398;9.646;2022-12-07T14:49:43;100407.91;;;1.97;100.00
8160;BME280;27404;52.398;9.646;2022-12-07T14:52:21;100411.63;;;1.96;100.00
8160;BME280;27404;52.398;9.646;2022-12-07T14:54:48;100414.69;;;1.93;100.00
8160;BME280;27404;52.398;9.646;2022-12-07T14:57:13;100415.25;;;1.88;100.00
8160;BME280;27404;52.398;9.646;2022-12-07T14:59:39;100415.31;;;1.80;100.00
8160;BME280;27404;52.398;9.646;2022-12-07T15:02:05;100420.06;;;1.78;100.00
8160;BME280;27404;52.398;9.646;2022-12-07T15:04:31;100415.50;;;1.78;100.00
8160;BME280;27404;52.398;9.646;2022-12-07T15:06:59;100415.03;;;1.75;100.00
8160;BME280;27404;52.398;9.646;2022-12-07T15:09:25;100414.53;;;1.71;100.00
8160;BME280;27404;52.398;9.646;2022-12-07T15:11:51;100420.84;;;1.63;100.00
8160;BME280;27404;52.398;9.646;2022-12-07T15:14:16;100417.50;;;1.61;100.00
8160;BME280;27404;52.398;9.646;2022-12-07T15:16:42;100409.31;;;1.55;100.00
8160;BME280;27404;52.398;9.646;2022-12-07T15:19:22;100414.72;;;1.55;100.00
8160;BME280;27404;52.398;9.646;2022-12-07T15:21:49;100413.69;;;1.56;100.00
8160;BME280;27404;52.398;9.646;2022-12-07T15:24:15;100407.66;;;1.54;100.00
8160;BME280;27404;52.398;9.646;2022-12-07T15:26:40;100413.56;;;1.49;100.00
8160;BME280;27404;52.398;9.646;2022-12-07T15:29:06;100411.22;;;1.46;100.00
8160;BME280;27404;52.398;9.646;2022-12-07T15:31:33;100416.16;;;1.42;100.00
8160;BME280;27404;52.398;9.646;2022-12-07T15:33:59;100409.75;;;1.43;100.00